createdAt,value
2017-09-13T00:01:39.020Z,86.20
2017-09-13T00:04:05.483Z,86.00
2017-09-13T00:06:31.891Z,85.90
2017-09-13T00:08:59.052Z,86.00
2017-09-13T00:11:26.440Z,85.90
2017-09-13T00:13:53.708Z,86.10
2017-09-13T00:16:20.933Z,85.80
2017-09-13T00:18:47.368Z,86.30
2017-09-13T00:21:15.122Z,85.90
2017-09-13T00:23:43.213Z,85.40
2017-09-13T00:26:10.572Z,85.40
2017-09-13T00:28:37.132Z,84.90
2017-09-13T00:31:03.569Z,84.80
2017-09-13T00:33:30.032Z,84.50
2017-09-13T00:35:57.351Z,83.90
2017-09-13T00:38:23.752Z,84.60
2017-09-13T00:40:50.146Z,84.90
2017-09-13T00:43:17.403Z,85.90
2017-09-13T00:45:43.770Z,84.90
2017-09-13T00:48:10.928Z,84.80
2017-09-13T00:50:38.975Z,84.50
2017-09-13T00:53:05.391Z,84.80
2017-09-13T00:55:32.583Z,85.10
2017-09-13T00:57:59.884Z,85.90
2017-09-13T01:00:27.057Z,85.50
2017-09-13T01:02:55.080Z,85.50
2017-09-13T01:05:22.218Z,86.00
2017-09-13T01:07:50.039Z,86.00
2017-09-13T01:10:18.059Z,85.60
2017-09-13T01:12:45.313Z,85.60
2017-09-13T01:15:12.591Z,85.70
2017-09-13T01:17:39.012Z,85.90
2017-09-13T01:20:06.244Z,85.60
2017-09-13T01:22:33.439Z,85.60
2017-09-13T01:24:59.792Z,85.30
2017-09-13T01:27:26.761Z,85.20
2017-09-13T01:29:53.124Z,85.50
2017-09-13T01:32:20.727Z,85.30
2017-09-13T01:34:48.495Z,85.60
2017-09-13T01:37:15.563Z,85.60
2017-09-13T01:39:43.278Z,85.30
2017-09-13T01:42:10.592Z,85.80
2017-09-13T01:44:38.256Z,85.70
2017-09-13T01:47:05.335Z,85.90
2017-09-13T01:49:32.480Z,87.20
2017-09-13T01:51:59.773Z,86.30
2017-09-13T01:54:26.921Z,86.30
2017-09-13T01:56:55.412Z,86.30
2017-09-13T01:59:21.829Z,86.20
2017-09-13T02:01:48.975Z,86.30
2017-09-13T02:04:16.392Z,86.30
2017-09-13T02:06:43.625Z,86.80
2017-09-13T02:09:10.064Z,87.30
2017-09-13T02:11:37.188Z,87.00
2017-09-13T02:14:04.295Z,86.40
2017-09-13T02:16:32.344Z,86.50
2017-09-13T02:18:59.479Z,86.70
2017-09-13T02:21:27.489Z,87.10
2017-09-13T02:23:53.939Z,87.20
2017-09-13T02:26:20.372Z,87.50
2017-09-13T02:28:47.634Z,89.40
2017-09-13T02:31:13.984Z,87.70
2017-09-13T02:33:41.202Z,87.80
2017-09-13T02:36:08.401Z,88.60
2017-09-13T02:38:35.552Z,88.10
2017-09-13T02:41:03.360Z,88.40
2017-09-13T02:43:32.085Z,87.90
2017-09-13T02:45:58.640Z,87.80
2017-09-13T02:48:25.079Z,87.80
2017-09-13T02:50:52.144Z,87.60
2017-09-13T02:53:18.545Z,87.50
2017-09-13T02:55:44.922Z,87.70
2017-09-13T02:58:11.448Z,87.90
2017-09-13T03:00:37.824Z,87.60
2017-09-13T03:03:05.116Z,87.90
2017-09-13T03:05:32.456Z,87.90
2017-09-13T03:08:00.375Z,88.10
2017-09-13T03:10:26.815Z,88.10
2017-09-13T03:12:54.391Z,88.10
2017-09-13T03:15:21.647Z,89.40
2017-09-13T03:17:49.532Z,88.60
2017-09-13T03:20:15.904Z,88.10
2017-09-13T03:22:44.100Z,88.90
2017-09-13T03:25:11.385Z,88.90
2017-09-13T03:27:37.829Z,88.10
2017-09-13T03:30:04.251Z,89.40
2017-09-13T03:32:30.674Z,89.60
2017-09-13T03:34:58.992Z,88.60
2017-09-13T03:37:26.109Z,88.70
2017-09-13T03:39:52.472Z,88.70
2017-09-13T03:42:19.835Z,89.80
2017-09-13T03:44:48.234Z,88.60
2017-09-13T03:47:14.601Z,88.90
2017-09-13T03:49:41.448Z,89.70
2017-09-13T03:52:07.935Z,89.10
2017-09-13T03:54:34.304Z,88.80
2017-09-13T03:57:01.656Z,88.90
2017-09-13T03:59:28.021Z,88.80
2017-09-13T04:01:55.559Z,88.90
2017-09-13T04:04:21.949Z,88.80
2017-09-13T04:06:48.428Z,88.60
2017-09-13T04:09:14.832Z,88.50
2017-09-13T04:11:41.237Z,88.40
2017-09-13T04:14:08.159Z,88.40
2017-09-13T04:16:36.907Z,89.00
2017-09-13T04:19:05.560Z,88.80
2017-09-13T04:21:33.034Z,89.40
2017-09-13T04:24:00.693Z,89.70
2017-09-13T04:26:28.019Z,89.00
2017-09-13T04:28:55.221Z,88.30
2017-09-13T04:31:24.278Z,89.30
2017-09-13T04:33:51.335Z,89.30
2017-09-13T04:36:18.777Z,89.00
2017-09-13T04:38:45.137Z,88.10
2017-09-13T04:41:12.593Z,89.30
2017-09-13T04:43:39.752Z,91.40
2017-09-13T04:46:06.800Z,89.10
2017-09-13T04:48:34.387Z,88.00
2017-09-13T04:51:00.893Z,88.00
2017-09-13T04:53:28.225Z,88.00
2017-09-13T04:55:55.712Z,88.20
2017-09-13T04:58:22.791Z,89.70
2017-09-13T05:00:49.880Z,89.70
2017-09-13T05:03:17.811Z,89.00
2017-09-13T05:05:45.104Z,88.90
2017-09-13T05:08:12.190Z,89.10
2017-09-13T05:10:39.280Z,89.10
2017-09-13T05:13:07.225Z,89.10
2017-09-13T05:15:33.604Z,88.30
2017-09-13T05:18:00.086Z,88.60
2017-09-13T05:20:26.521Z,89.30
2017-09-13T05:22:54.289Z,88.40
2017-09-13T05:25:21.593Z,88.80
2017-09-13T05:27:49.280Z,88.80
2017-09-13T05:30:15.616Z,88.30
2017-09-13T05:32:41.931Z,87.90
2017-09-13T05:35:10.368Z,87.80
2017-09-13T05:37:37.472Z,87.70
2017-09-13T05:40:03.825Z,87.20
2017-09-13T05:42:31.120Z,86.90
2017-09-13T05:44:58.166Z,86.70
2017-09-13T05:47:24.541Z,86.50
2017-09-13T05:49:51.680Z,86.10
2017-09-13T05:52:18.103Z,86.60
2017-09-13T05:54:44.432Z,86.30
2017-09-13T05:57:13.725Z,85.10
2017-09-13T05:59:41.973Z,85.60
2017-09-13T06:02:09.329Z,85.60
2017-09-13T06:04:36.368Z,85.30
2017-09-13T06:07:02.799Z,85.10
2017-09-13T06:09:29.968Z,84.70
2017-09-13T06:11:56.312Z,84.00
2017-09-13T06:14:22.641Z,85.00
2017-09-13T06:16:49.006Z,84.20
2017-09-13T06:19:15.478Z,83.90
2017-09-13T06:21:42.879Z,84.30
2017-09-13T06:24:10.138Z,83.40
2017-09-13T06:26:37.253Z,83.40
2017-09-13T06:29:03.576Z,83.50
2017-09-13T06:31:30.665Z,82.70
2017-09-13T06:33:57.704Z,82.50
2017-09-13T06:36:24.956Z,83.00
2017-09-13T06:38:52.264Z,82.60
2017-09-13T06:41:19.389Z,81.30
2017-09-13T06:43:46.645Z,82.10
2017-09-13T06:46:12.982Z,80.30
2017-09-13T06:48:39.380Z,80.10
2017-09-13T06:51:06.505Z,79.70
2017-09-13T06:53:33.546Z,79.50
2017-09-13T06:56:01.295Z,78.20
2017-09-13T06:58:28.375Z,79.10
2017-09-13T07:00:54.703Z,79.00
2017-09-13T07:03:21.986Z,78.50
2017-09-13T07:05:49.416Z,78.40
2017-09-13T07:08:16.214Z,77.70
2017-09-13T07:10:43.312Z,77.00
2017-09-13T07:13:09.802Z,77.00
2017-09-13T07:15:37.088Z,76.20
2017-09-13T07:18:04.393Z,76.00
2017-09-13T07:20:31.515Z,74.60
2017-09-13T07:22:58.725Z,74.20
2017-09-13T07:25:25.792Z,73.80
2017-09-13T07:27:53.815Z,72.90
2017-09-13T07:30:21.393Z,73.00
2017-09-13T07:32:47.728Z,72.50
2017-09-13T07:35:15.141Z,72.50
2017-09-13T07:37:44.365Z,70.70
2017-09-13T07:40:11.721Z,70.90
2017-09-13T07:42:38.897Z,71.00
2017-09-13T07:45:05.250Z,69.90
2017-09-13T07:47:32.642Z,70.30
2017-09-13T07:49:59.720Z,69.80
2017-09-13T07:52:26.880Z,69.70
2017-09-13T07:54:53.212Z,68.60
2017-09-13T07:57:19.638Z,69.60
2017-09-13T07:59:46.145Z,67.60
2017-09-13T08:02:12.638Z,68.00
2017-09-13T08:04:40.818Z,68.00
2017-09-13T08:07:09.137Z,64.30
2017-09-13T08:09:35.617Z,67.70
2017-09-13T08:12:02.104Z,66.50
2017-09-13T08:14:30.054Z,66.10
2017-09-13T08:16:57.110Z,63.60
2017-09-13T08:19:31.479Z,65.50
2017-09-13T08:21:58.400Z,65.10
2017-09-13T08:24:26.245Z,62.80
2017-09-13T08:26:53.602Z,62.90
2017-09-13T08:29:20.863Z,64.40
2017-09-13T08:31:47.304Z,62.20
2017-09-13T08:34:13.945Z,61.60
2017-09-13T08:36:42.122Z,61.40
2017-09-13T08:39:08.520Z,62.10
2017-09-13T08:41:36.720Z,59.30
2017-09-13T08:44:03.178Z,59.10
2017-09-13T08:46:29.555Z,59.00
2017-09-13T08:48:57.376Z,61.90
2017-09-13T08:51:25.945Z,61.90
2017-09-13T08:53:53.006Z,59.80
2017-09-13T08:56:19.378Z,62.20
2017-09-13T08:58:45.985Z,58.90
2017-09-13T09:01:13.552Z,60.50
2017-09-13T09:03:40.769Z,59.80
2017-09-13T09:06:10.820Z,59.80
2017-09-13T09:08:39.703Z,59.60
2017-09-13T09:11:06.808Z,57.70
2017-09-13T09:13:33.888Z,57.90
2017-09-13T09:16:02.943Z,59.10
2017-09-13T09:18:31.074Z,59.10
2017-09-13T09:20:59.546Z,57.60
2017-09-13T09:23:27.052Z,58.70
2017-09-13T09:25:53.430Z,57.00
2017-09-13T09:28:20.465Z,56.90
2017-09-13T09:30:47.560Z,55.50
2017-09-13T09:33:14.490Z,56.50
2017-09-13T09:35:41.985Z,55.40
2017-09-13T09:38:09.098Z,56.80
2017-09-13T09:40:35.473Z,56.50
2017-09-13T09:43:03.502Z,54.10
2017-09-13T09:45:29.896Z,53.50
2017-09-13T09:47:57.720Z,53.10
2017-09-13T09:50:24.179Z,52.70
2017-09-13T09:52:50.539Z,55.00
2017-09-13T09:55:18.480Z,51.50
2017-09-13T09:57:46.920Z,51.50
2017-09-13T10:00:13.328Z,53.60
2017-09-13T10:02:39.792Z,50.10
2017-09-13T10:05:07.110Z,51.80
2017-09-13T10:07:34.239Z,52.70
2017-09-13T10:10:00.768Z,52.10
2017-09-13T10:12:27.135Z,51.60
2017-09-13T10:14:54.319Z,52.20
2017-09-13T10:17:21.436Z,52.30
2017-09-13T10:19:47.954Z,52.30
2017-09-13T10:22:14.502Z,52.50
2017-09-13T10:24:41.755Z,51.00
2017-09-13T10:27:08.192Z,49.60
2017-09-13T10:29:35.471Z,49.50
2017-09-13T10:32:03.323Z,50.80
2017-09-13T10:34:29.746Z,49.80
2017-09-13T10:36:56.727Z,49.50
2017-09-13T10:39:23.090Z,49.00
2017-09-13T10:41:53.358Z,47.70
2017-09-13T10:44:20.569Z,46.90
2017-09-13T10:46:47.601Z,48.00
2017-09-13T10:49:14.018Z,48.70
2017-09-13T10:51:40.578Z,48.10
2017-09-13T10:54:07.082Z,47.60
2017-09-13T10:56:34.237Z,47.90
2017-09-13T10:59:01.393Z,47.70
2017-09-13T11:01:28.520Z,48.30
2017-09-13T11:03:57.655Z,47.00
2017-09-13T11:06:24.106Z,46.70
2017-09-13T11:08:51.830Z,45.80
2017-09-13T11:11:19.800Z,46.60
2017-09-13T11:13:48.120Z,47.20
2017-09-13T11:16:14.738Z,46.40
2017-09-13T11:18:41.849Z,47.40
2017-09-13T11:21:08.345Z,47.50
2017-09-13T11:23:35.457Z,47.10
2017-09-13T11:26:02.598Z,44.30
2017-09-13T11:28:29.042Z,46.90
2017-09-13T11:30:56.049Z,47.10
2017-09-13T11:33:22.392Z,46.70
2017-09-13T11:35:49.685Z,46.70
2017-09-13T11:38:16.065Z,47.10
2017-09-13T11:40:43.194Z,46.30
2017-09-13T11:43:10.686Z,46.30
2017-09-13T11:45:38.979Z,44.50
2017-09-13T11:48:05.434Z,44.50
2017-09-13T11:50:31.979Z,44.10
2017-09-13T11:52:59.195Z,44.20
2017-09-13T11:55:27.124Z,44.60
2017-09-13T11:57:53.587Z,43.80
2017-09-13T12:00:20.090Z,45.30
2017-09-13T12:02:46.537Z,45.30
2017-09-13T12:05:13.621Z,43.30
2017-09-13T12:07:40.992Z,44.40
2017-09-13T12:10:08.972Z,44.60
2017-09-13T12:12:39.561Z,44.40
2017-09-13T12:15:07.705Z,44.40
2017-09-13T12:17:37.011Z,43.60
2017-09-13T12:20:08.152Z,43.10
2017-09-13T12:22:37.339Z,44.10
2017-09-13T12:25:08.553Z,42.70
2017-09-13T12:27:35.537Z,42.70
2017-09-13T12:30:03.023Z,42.50
2017-09-13T12:32:29.569Z,42.50
2017-09-13T12:34:56.918Z,42.30
2017-09-13T12:37:24.663Z,42.90
2017-09-13T12:39:52.785Z,41.60
2017-09-13T12:42:19.785Z,41.60
2017-09-13T12:44:47.719Z,42.60
2017-09-13T12:47:15.785Z,41.80
2017-09-13T12:49:42.255Z,41.90
2017-09-13T12:52:09.329Z,42.20
2017-09-13T12:54:37.121Z,43.00
2017-09-13T12:57:03.488Z,43.00
2017-09-13T12:59:29.921Z,42.70
2017-09-13T13:01:56.460Z,44.00
2017-09-13T13:04:23.001Z,43.10
2017-09-13T13:06:50.261Z,43.30
2017-09-13T13:09:16.642Z,43.90
2017-09-13T13:11:45.200Z,45.30
2017-09-13T13:14:11.562Z,44.80
2017-09-13T13:16:38.729Z,44.90
2017-09-13T13:19:05.842Z,45.40
2017-09-13T13:21:32.202Z,45.30
2017-09-13T13:23:59.306Z,46.00
2017-09-13T13:26:26.749Z,47.00
2017-09-13T13:28:54.417Z,47.20
2017-09-13T13:31:21.611Z,46.30
2017-09-13T13:33:48.328Z,46.20
2017-09-13T13:36:15.623Z,45.90
2017-09-13T13:38:43.068Z,46.00
2017-09-13T13:41:10.793Z,45.90
2017-09-13T13:43:39.048Z,46.40
2017-09-13T13:46:06.084Z,46.40
2017-09-13T13:48:33.083Z,46.20
2017-09-13T13:51:01.177Z,48.30
2017-09-13T13:53:29.416Z,48.30
2017-09-13T13:55:55.986Z,47.90
2017-09-13T13:58:23.154Z,48.10
2017-09-13T14:00:50.450Z,48.00
2017-09-13T14:03:16.816Z,47.70
2017-09-13T14:05:45.218Z,49.40
2017-09-13T14:08:13.129Z,49.80
2017-09-13T14:10:39.537Z,49.80
2017-09-13T14:13:06.689Z,51.00
2017-09-13T14:15:33.892Z,51.00
2017-09-13T14:18:00.447Z,51.00
2017-09-13T14:20:27.360Z,50.20
2017-09-13T14:22:54.258Z,51.60
2017-09-13T14:25:22.092Z,54.60
2017-09-13T14:27:49.401Z,54.70
2017-09-13T14:30:17.335Z,57.50
2017-09-13T14:32:43.762Z,57.40
2017-09-13T14:35:11.163Z,55.80
2017-09-13T14:37:38.143Z,57.20
2017-09-13T14:40:05.753Z,57.70
2017-09-13T14:42:33.096Z,57.80
2017-09-13T14:45:00.192Z,57.40
2017-09-13T14:47:27.230Z,58.10
2017-09-13T14:49:53.608Z,58.50
2017-09-13T14:52:22.112Z,58.70
2017-09-13T14:54:49.382Z,58.80
2017-09-13T14:57:16.640Z,59.30
2017-09-13T14:59:43.794Z,60.10
2017-09-13T15:02:11.679Z,60.90
2017-09-13T15:04:38.988Z,60.90
2017-09-13T15:07:07.537Z,59.00
2017-09-13T15:09:33.928Z,59.00
2017-09-13T15:12:00.327Z,59.00
2017-09-13T15:14:27.497Z,59.70
2017-09-13T15:16:54.692Z,58.80
2017-09-13T15:19:21.904Z,58.80
2017-09-13T15:21:48.328Z,58.30
2017-09-13T15:24:16.275Z,58.40
2017-09-13T15:26:43.609Z,57.50
2017-09-13T15:29:10.040Z,57.70
2017-09-13T15:31:37.691Z,57.70
2017-09-13T15:34:05.021Z,57.90
2017-09-13T15:36:32.593Z,58.10
2017-09-13T15:39:00.048Z,57.90
2017-09-13T15:41:27.649Z,57.80
2017-09-13T15:43:55.860Z,57.30
2017-09-13T15:46:22.432Z,57.20
2017-09-13T15:48:50.232Z,58.10
2017-09-13T15:51:17.423Z,58.60
2017-09-13T15:53:43.799Z,58.60
2017-09-13T15:56:11.039Z,57.60
2017-09-13T15:58:38.275Z,58.10
2017-09-13T16:01:04.730Z,60.40
2017-09-13T16:03:31.135Z,62.30
2017-09-13T16:05:58.454Z,60.80
2017-09-13T16:08:25.713Z,64.20
2017-09-13T16:10:53.121Z,64.00
2017-09-13T16:13:20.124Z,64.20
2017-09-13T16:15:46.631Z,66.30
2017-09-13T16:18:13.652Z,64.30
2017-09-13T16:20:40.132Z,64.30
2017-09-13T16:23:06.576Z,64.10
2017-09-13T16:25:33.892Z,63.90
2017-09-13T16:28:00.314Z,63.60
2017-09-13T16:30:27.537Z,64.70
2017-09-13T16:32:54.603Z,64.80
2017-09-13T16:35:21.770Z,63.80
2017-09-13T16:37:51.400Z,64.10
2017-09-13T16:40:17.818Z,64.20
2017-09-13T16:42:45.675Z,64.50
2017-09-13T16:45:12.112Z,64.50
2017-09-13T16:47:39.673Z,66.50
2017-09-13T16:50:06.148Z,64.80
2017-09-13T16:52:33.416Z,67.20
2017-09-13T16:54:59.959Z,67.30
2017-09-13T16:57:27.096Z,67.10
2017-09-13T16:59:55.468Z,66.60
2017-09-13T17:02:23.186Z,67.10
2017-09-13T17:04:49.555Z,67.30
2017-09-13T17:07:15.979Z,67.70
2017-09-13T17:09:42.504Z,69.10
2017-09-13T17:12:09.834Z,70.50
2017-09-13T17:14:37.046Z,71.00
2017-09-13T17:17:04.457Z,71.70
2017-09-13T17:19:30.872Z,69.00
2017-09-13T17:21:57.995Z,70.30
2017-09-13T17:24:25.228Z,70.50
2017-09-13T17:26:52.651Z,71.80
2017-09-13T17:29:20.416Z,71.00
2017-09-13T17:31:47.563Z,70.50
2017-09-13T17:34:14.836Z,70.60
2017-09-13T17:36:43.507Z,69.30
2017-09-13T17:39:10.668Z,69.30
2017-09-13T17:41:38.658Z,69.40
2017-09-13T17:44:05.787Z,69.30
2017-09-13T17:46:32.825Z,69.50
2017-09-13T17:49:00.081Z,68.70
2017-09-13T17:51:26.479Z,68.80
2017-09-13T17:53:53.692Z,69.10
2017-09-13T17:56:20.121Z,68.60
2017-09-13T17:58:47.513Z,69.30
2017-09-13T18:01:14.785Z,69.00
2017-09-13T18:03:42.108Z,69.60
2017-09-13T18:06:09.488Z,68.80
2017-09-13T18:08:37.881Z,69.00
2017-09-13T18:11:05.119Z,69.00
2017-09-13T18:13:32.992Z,69.20
2017-09-13T18:16:02.430Z,69.20
2017-09-13T18:18:29.618Z,69.20
2017-09-13T18:20:57.587Z,69.30
2017-09-13T18:23:23.958Z,68.90
2017-09-13T18:25:51.097Z,68.90
2017-09-13T18:28:18.349Z,68.70
2017-09-13T18:30:44.763Z,68.60
2017-09-13T18:33:11.209Z,68.80
2017-09-13T18:35:38.728Z,68.70
2017-09-13T18:38:06.696Z,68.90
2017-09-13T18:40:33.937Z,68.70
2017-09-13T18:43:02.014Z,68.70
2017-09-13T18:45:28.518Z,68.90
2017-09-13T18:47:56.529Z,69.00
2017-09-13T18:50:22.904Z,68.50
2017-09-13T18:52:50.048Z,69.20
2017-09-13T18:55:17.434Z,69.20
2017-09-13T18:57:43.870Z,68.50
2017-09-13T19:00:10.322Z,69.10
2017-09-13T19:02:36.752Z,68.50
2017-09-13T19:05:03.241Z,68.80
2017-09-13T19:07:31.242Z,69.10
2017-09-13T19:09:58.435Z,69.10
2017-09-13T19:12:25.466Z,69.20
2017-09-13T19:14:51.927Z,70.80
2017-09-13T19:17:18.347Z,69.60
2017-09-13T19:19:44.824Z,70.90
2017-09-13T19:22:11.225Z,70.50
2017-09-13T19:24:38.396Z,71.20
2017-09-13T19:27:05.477Z,71.40
2017-09-13T19:29:31.887Z,72.00
2017-09-13T19:31:58.432Z,71.80
2017-09-13T19:34:25.841Z,70.80
2017-09-13T19:36:53.737Z,70.50
2017-09-13T19:39:20.939Z,70.60
2017-09-13T19:41:47.968Z,70.40
2017-09-13T19:44:14.449Z,70.70
2017-09-13T19:46:40.904Z,70.60
2017-09-13T19:49:08.990Z,71.30
2017-09-13T19:51:35.379Z,71.40
2017-09-13T19:54:02.555Z,71.40
2017-09-13T19:56:28.960Z,71.40
2017-09-13T19:58:56.983Z,71.90
2017-09-13T20:01:24.761Z,71.20
2017-09-13T20:03:52.924Z,71.10
2017-09-13T20:06:20.943Z,71.70
2017-09-13T20:08:48.576Z,71.80
2017-09-13T20:11:15.738Z,72.10
2017-09-13T20:13:44.720Z,72.20
2017-09-13T20:16:12.736Z,72.10
2017-09-13T20:18:39.833Z,72.20
2017-09-13T20:21:06.336Z,72.10
2017-09-13T20:23:33.435Z,72.50
2017-09-13T20:26:01.436Z,73.60
2017-09-13T20:28:27.913Z,73.80
2017-09-13T20:30:54.440Z,72.40
2017-09-13T20:33:22.219Z,72.70
2017-09-13T20:35:49.984Z,72.80
2017-09-13T20:38:18.251Z,72.50
2017-09-13T20:40:45.310Z,73.40
2017-09-13T20:43:12.380Z,72.90
2017-09-13T20:45:40.335Z,73.00
2017-09-13T20:48:07.698Z,72.80
2017-09-13T20:50:35.029Z,72.60
2017-09-13T20:53:02.225Z,72.50
2017-09-13T20:55:29.491Z,72.60
2017-09-13T20:57:56.504Z,72.80
2017-09-13T21:00:23.984Z,72.70
2017-09-13T21:02:51.954Z,72.70
2017-09-13T21:05:19.235Z,72.40
2017-09-13T21:07:46.699Z,73.10
2017-09-13T21:10:13.112Z,73.50
2017-09-13T21:12:41.148Z,74.20
2017-09-13T21:15:09.028Z,73.10
2017-09-13T21:17:36.835Z,73.60
2017-09-13T21:20:03.777Z,73.60
2017-09-13T21:22:30.735Z,72.80
2017-09-13T21:24:58.262Z,73.00
2017-09-13T21:27:26.117Z,72.90
2017-09-13T21:29:53.988Z,72.80
2017-09-13T21:32:21.193Z,73.50
2017-09-13T21:34:48.159Z,72.70
2017-09-13T21:37:15.220Z,72.60
2017-09-13T21:39:42.878Z,73.00
2017-09-13T21:42:10.640Z,73.40
2017-09-13T21:44:37.872Z,73.00
2017-09-13T21:47:05.263Z,73.00
2017-09-13T21:49:32.453Z,73.20
2017-09-13T21:51:59.671Z,73.10
2017-09-13T21:54:27.047Z,73.50
2017-09-13T21:56:54.330Z,73.70
2017-09-13T21:59:22.071Z,73.10
2017-09-13T22:01:48.512Z,73.10
2017-09-13T22:04:15.877Z,73.10
2017-09-13T22:06:43.028Z,73.30
2017-09-13T22:09:09.477Z,73.30
2017-09-13T22:11:35.893Z,73.30
2017-09-13T22:14:03.240Z,73.00
2017-09-13T22:16:31.010Z,73.50
2017-09-13T22:18:57.544Z,73.30
2017-09-13T22:21:25.324Z,73.40
2017-09-13T22:23:52.448Z,73.50
2017-09-13T22:26:20.154Z,73.40
2017-09-13T22:28:46.567Z,73.30
2017-09-13T22:31:12.970Z,74.10
2017-09-13T22:33:40.610Z,73.80
2017-09-13T22:36:07.842Z,73.60
2017-09-13T22:38:34.799Z,74.00
2017-09-13T22:41:01.163Z,73.60
2017-09-13T22:43:28.334Z,73.50
2017-09-13T22:45:55.512Z,74.30
2017-09-13T22:48:23.649Z,73.90
2017-09-13T22:50:50.722Z,73.90
2017-09-13T22:53:17.205Z,74.30
2017-09-13T22:55:44.568Z,74.90
2017-09-13T22:58:11.004Z,74.80
2017-09-13T23:00:37.525Z,74.20
2017-09-13T23:03:04.598Z,74.50
2017-09-13T23:05:30.986Z,74.50
2017-09-13T23:07:57.496Z,74.90
2017-09-13T23:10:23.904Z,75.30
2017-09-13T23:12:50.979Z,75.40
2017-09-13T23:15:18.241Z,75.30
2017-09-13T23:17:44.663Z,75.30
2017-09-13T23:20:12.474Z,75.00
2017-09-13T23:22:39.608Z,75.30
2017-09-13T23:25:06.131Z,74.50
2017-09-13T23:27:32.942Z,74.60
2017-09-13T23:30:01.583Z,74.90
2017-09-13T23:32:27.935Z,74.90
2017-09-13T23:34:55.071Z,74.90
2017-09-13T23:37:21.971Z,74.80
2017-09-13T23:39:49.895Z,74.50
2017-09-13T23:42:17.052Z,74.50
2017-09-13T23:44:43.469Z,74.70
2017-09-13T23:47:09.912Z,74.50
2017-09-13T23:49:36.992Z,74.80
2017-09-13T23:52:04.851Z,74.60
2017-09-13T23:54:32.114Z,74.80
2017-09-13T23:57:00.076Z,74.90
2017-09-13T23:59:32.231Z,74.90
